Time;durP1;ratioP1;P1;durP2;ratioP2;P2;SDS_P1;SDS_P2;PMS_P1;PMS_P2;Temp;Humidity;BMP_temperature;BMP_pressure;BME280_temperature;BME280_humidity;BME280_pressure;Samples;Min_cycle;Max_cycle;Signal;HPM_P1;HPM_P2
2021/11/14 00:00:53;;;;;;;15.00;9.60;;;7.80;99.90;;;;;;5066941;28;20462;-73
2021/11/14 00:03:19;;;;;;;10.57;7.70;;;7.80;99.90;;;;;;5048257;28;20476;-74
2021/11/14 00:05:46;;;;;;;10.30;7.50;;;7.80;99.90;;;;;;5066796;28;20526;-74
2021/11/14 00:08:14;;;;;;;11.13;7.97;;;7.70;99.90;;;;;;5064899;28;20454;-73
2021/11/14 00:10:42;;;;;;;11.30;8.10;;;7.80;99.90;;;;;;5066684;28;20994;-73
2021/11/14 00:13:08;;;;;;;11.10;8.60;;;7.70;99.90;;;;;;5064509;28;20462;-73
2021/11/14 00:15:34;;;;;;;18.53;9.83;;;7.80;99.90;;;;;;5066737;28;20507;-73
2021/11/14 00:18:00;;;;;;;11.87;8.10;;;7.80;99.90;;;;;;5064534;28;20454;-73
2021/11/14 00:20:27;;;;;;;12.40;9.13;;;7.80;99.90;;;;;;5066416;28;20218;-73
2021/11/14 00:22:53;;;;;;;12.60;8.97;;;7.80;99.90;;;;;;5067623;28;20310;-73
2021/11/14 00:25:19;;;;;;;14.40;9.60;;;7.80;99.90;;;;;;5069194;28;20449;-72
2021/11/14 00:27:46;;;;;;;15.90;8.87;;;7.80;99.90;;;;;;5073209;28;20965;-74
2021/11/14 00:30:13;;;;;;;15.73;9.37;;;7.80;99.90;;;;;;5055151;28;20696;-73
2021/11/14 00:32:40;;;;;;;17.33;9.40;;;7.80;99.90;;;;;;5055769;28;20468;-73
2021/11/14 00:35:08;;;;;;;20.23;10.97;;;7.80;99.90;;;;;;5088744;28;20226;-73
2021/11/14 00:37:35;;;;;;;13.30;9.27;;;7.80;99.90;;;;;;5073004;28;20468;-74
2021/11/14 00:40:05;;;;;;;16.70;10.00;;;7.80;99.90;;;;;;5057535;28;20480;-73
2021/11/14 00:42:31;;;;;;;19.73;10.13;;;7.80;99.90;;;;;;5055990;28;20457;-72
2021/11/14 00:44:56;;;;;;;17.30;10.73;;;7.80;99.90;;;;;;5071125;28;20465;-74
2021/11/14 00:47:22;;;;;;;16.90;10.27;;;7.80;99.90;;;;;;5045696;28;20244;-72
2021/11/14 00:49:49;;;;;;;18.17;9.90;;;7.80;99.90;;;;;;5069468;28;20235;-73
2021/11/14 00:52:15;;;;;;;18.83;11.43;;;7.80;99.90;;;;;;5053146;28;20226;-73
2021/11/14 00:54:41;;;;;;;15.90;9.63;;;7.80;99.90;;;;;;5053306;28;20507;-73
2021/11/14 00:57:07;;;;;;;20.43;10.60;;;7.80;99.90;;;;;;5051058;28;20228;-73
2021/11/14 00:59:33;;;;;;;19.17;10.60;;;7.80;99.90;;;;;;5073132;28;20225;-73
2021/11/14 01:01:59;;;;;;;16.67;11.47;;;7.80;99.90;;;;;;5054116;28;20310;-74
2021/11/14 01:04:24;;;;;;;23.00;12.53;;;7.90;99.90;;;;;;5055701;28;20528;-74
2021/11/14 01:06:50;;;;;;;19.50;10.33;;;7.80;99.90;;;;;;5048989;28;20230;-73
2021/11/14 01:09:16;;;;;;;24.20;12.67;;;7.80;99.90;;;;;;5063448;28;20311;-73
2021/11/14 01:11:42;;;;;;;17.87;11.80;;;7.90;99.90;;;;;;5092842;28;20226;-74
2021/11/14 01:14:08;;;;;;;16.43;9.97;;;7.90;99.90;;;;;;5077410;28;20259;-74
2021/11/14 01:16:34;;;;;;;22.43;12.13;;;7.90;99.90;;;;;;5056054;28;20489;-74
2021/11/14 01:18:59;;;;;;;18.10;10.67;;;7.90;99.90;;;;;;5054578;28;20514;-72
2021/11/14 01:21:27;;;;;;;21.07;10.20;;;7.90;99.90;;;;;;5056122;28;20218;-74
2021/11/14 01:23:58;;;;;;;23.77;12.10;;;7.90;99.90;;;;;;5071584;28;20227;-74
2021/11/14 01:26:23;;;;;;;20.93;11.43;;;7.90;99.90;;;;;;5073848;28;21028;-73
2021/11/14 01:28:49;;;;;;;23.73;12.00;;;7.90;99.90;;;;;;5055768;28;20480;-73
2021/11/14 01:31:15;;;;;;;21.50;12.77;;;7.90;99.90;;;;;;5082646;28;20214;-73
2021/11/14 01:33:40;;;;;;;23.50;12.00;;;7.90;99.90;;;;;;5075543;28;20221;-74
2021/11/14 01:36:06;;;;;;;19.93;11.27;;;7.90;99.90;;;;;;5089835;28;20272;-73
2021/11/14 01:38:32;;;;;;;21.60;11.10;;;7.90;99.90;;;;;;5085626;28;20203;-73
2021/11/14 01:41:07;;;;;;;23.27;11.20;;;7.90;99.90;;;;;;5068012;28;20215;-74
2021/11/14 01:43:38;;;;;;;21.17;11.47;;;7.90;99.90;;;;;;5069789;28;20453;-73
2021/11/14 01:46:04;;;;;;;20.10;11.50;;;7.90;99.90;;;;;;5059468;28;20463;-74
2021/11/14 01:48:30;;;;;;;18.60;10.57;;;7.90;99.90;;;;;;5086302;28;20464;-73
2021/11/14 01:50:56;;;;;;;16.47;11.20;;;7.90;99.90;;;;;;5050824;28;20504;-74
2021/11/14 01:53:22;;;;;;;20.77;11.27;;;7.90;99.90;;;;;;5069568;28;20973;-74
2021/11/14 01:55:48;;;;;;;15.80;9.63;;;8.00;99.90;;;;;;5085830;28;20322;-74
2021/11/14 01:58:19;;;;;;;13.23;8.40;;;8.00;99.90;;;;;;5068906;28;20261;-74
2021/11/14 02:01:09;;;;;;;17.87;8.80;;;8.00;99.90;;;;;;5066911;28;20569;-73
2021/11/14 02:03:37;;;;;;;13.07;8.47;;;8.00;99.90;;;;;;5062965;28;20450;-73
2021/11/14 02:06:06;;;;;;;14.13;8.70;;;8.00;99.90;;;;;;5050477;28;20554;-73
2021/11/14 02:08:33;;;;;;;14.03;8.30;;;8.00;99.90;;;;;;5065149;28;20466;-74
2021/11/14 02:11:00;;;;;;;13.10;9.07;;;8.00;99.90;;;;;;5052070;28;20465;-73
2021/11/14 02:13:26;;;;;;;14.80;8.50;;;8.00;99.90;;;;;;5068430;28;20564;-73
2021/11/14 02:15:51;;;;;;;15.10;8.87;;;8.00;99.90;;;;;;5068705;28;20500;-73
2021/11/14 02:18:17;;;;;;;16.70;9.10;;;8.00;99.90;;;;;;5066456;28;20465;-73
2021/11/14 02:20:44;;;;;;;13.37;8.43;;;8.00;99.90;;;;;;5068787;28;20225;-74
2021/11/14 02:23:13;;;;;;;12.23;8.10;;;8.00;99.90;;;;;;5066429;28;20227;-73
2021/11/14 02:25:39;;;;;;;14.10;7.83;;;8.00;99.90;;;;;;5068538;28;20552;-73
2021/11/14 02:28:05;;;;;;;13.03;8.63;;;8.00;99.90;;;;;;5066720;28;20549;-73
2021/11/14 02:30:31;;;;;;;13.17;7.37;;;8.00;99.90;;;;;;5068160;28;20688;-74
2021/11/14 02:32:57;;;;;;;15.83;7.97;;;8.00;99.90;;;;;;5066701;28;20234;-74
2021/11/14 02:35:24;;;;;;;17.43;8.37;;;8.00;99.90;;;;;;5067668;28;20219;-73
2021/11/14 02:37:51;;;;;;;13.13;8.13;;;8.00;99.90;;;;;;5048388;28;20463;-73
2021/11/14 02:40:18;;;;;;;11.53;7.63;;;8.00;99.90;;;;;;5066890;28;20480;-73
2021/11/14 02:42:46;;;;;;;11.30;7.73;;;8.00;99.90;;;;;;5051194;28;21002;-73
2021/11/14 02:45:13;;;;;;;17.67;9.43;;;8.00;99.90;;;;;;5067712;28;20508;-74
2021/11/14 02:47:39;;;;;;;14.43;7.60;;;8.10;99.90;;;;;;5051429;28;20468;-74
2021/11/14 02:50:07;;;;;;;12.90;7.07;;;8.00;99.90;;;;;;5066975;28;20470;-73
2021/11/14 02:52:33;;;;;;;13.63;8.13;;;8.10;99.90;;;;;;5051135;28;20245;-73
2021/11/14 02:54:59;;;;;;;12.93;8.33;;;8.10;99.90;;;;;;5066697;28;20568;-74
2021/11/14 02:57:25;;;;;;;11.07;7.30;;;8.10;99.90;;;;;;5068057;28;20243;-74
2021/11/14 02:59:51;;;;;;;13.57;7.80;;;8.10;99.90;;;;;;5067495;28;20308;-74
2021/11/14 03:02:17;;;;;;;11.60;7.50;;;8.10;99.90;;;;;;5067315;28;20327;-74
2021/11/14 03:04:43;;;;;;;15.90;7.60;;;8.10;99.90;;;;;;5067185;28;20219;-74
2021/11/14 03:07:09;;;;;;;11.57;7.90;;;8.10;99.90;;;;;;5066521;28;20545;-74
2021/11/14 03:09:35;;;;;;;11.23;7.60;;;8.10;99.90;;;;;;5067575;28;20544;-74
2021/11/14 03:12:03;;;;;;;13.10;8.63;;;8.10;99.90;;;;;;5066087;28;20477;-73
2021/11/14 03:14:29;;;;;;;15.13;7.97;;;8.10;99.90;;;;;;5066843;28;20523;-74
2021/11/14 03:16:55;;;;;;;11.87;7.30;;;8.10;99.90;;;;;;5065549;28;20469;-74
2021/11/14 03:19:22;;;;;;;13.77;8.73;;;8.10;99.90;;;;;;5067343;28;20222;-73
2021/11/14 03:21:48;;;;;;;9.97;7.03;;;8.10;99.90;;;;;;5066791;28;20234;-72
2021/11/14 03:24:14;;;;;;;16.63;8.80;;;8.10;99.90;;;;;;5065206;28;20490;-74
2021/11/14 03:26:40;;;;;;;11.50;7.43;;;8.10;99.90;;;;;;5067407;28;20470;-73
2021/11/14 03:29:06;;;;;;;12.30;8.10;;;8.10;99.90;;;;;;5065977;28;20485;-73
2021/11/14 03:31:32;;;;;;;15.73;9.00;;;8.10;99.90;;;;;;5066917;28;20477;-73
2021/11/14 03:33:58;;;;;;;14.73;7.43;;;8.10;99.90;;;;;;5065372;28;20453;-73
2021/11/14 03:36:26;;;;;;;13.17;8.50;;;8.10;99.90;;;;;;5066840;28;20290;-72
2021/11/14 03:38:58;;;;;;;14.17;9.20;;;8.10;99.90;;;;;;5067135;28;20215;-73
2021/11/14 03:41:33;;;;;;;13.00;8.80;;;8.10;99.90;;;;;;5067138;28;20528;-74
2021/11/14 03:43:59;;;;;;;15.30;8.40;;;8.10;99.90;;;;;;5065334;28;20461;-74
2021/11/14 03:46:25;;;;;;;13.73;8.53;;;8.10;99.90;;;;;;5066367;28;20541;-74
2021/11/14 03:48:54;;;;;;;13.00;8.60;;;8.10;99.90;;;;;;5066881;28;20453;-74
2021/11/14 03:51:23;;;;;;;14.10;8.43;;;8.10;99.90;;;;;;5083544;28;20507;-73
2021/11/14 03:53:50;;;;;;;15.20;8.43;;;8.10;99.90;;;;;;5066718;28;20458;-73
2021/11/14 03:56:18;;;;;;;14.60;8.23;;;8.10;99.90;;;;;;5065345;28;20453;-74
2021/11/14 03:58:44;;;;;;;19.50;10.00;;;8.10;99.90;;;;;;5067112;28;20464;-73
2021/11/14 04:01:15;;;;;;;13.80;8.70;;;8.10;99.90;;;;;;5047139;28;20458;-74
2021/11/14 04:03:41;;;;;;;17.03;8.70;;;8.10;99.90;;;;;;5083449;28;20223;-74
2021/11/14 04:06:07;;;;;;;15.40;9.00;;;8.10;99.90;;;;;;5065107;28;20469;-73
2021/11/14 04:08:33;;;;;;;15.60;9.13;;;8.10;99.90;;;;;;5049129;28;20226;-73
2021/11/14 04:11:01;;;;;;;19.13;9.87;;;8.10;99.90;;;;;;5063974;28;20472;-74
2021/11/14 04:13:30;;;;;;;17.47;9.37;;;8.10;99.90;;;;;;5066226;28;20540;-74
2021/11/14 04:16:00;;;;;;;13.27;8.17;;;8.10;99.90;;;;;;5065023;28;20476;-74
2021/11/14 04:18:26;;;;;;;13.43;8.67;;;8.10;99.90;;;;;;5067466;28;20461;-72
2021/11/14 04:20:52;;;;;;;15.97;9.50;;;8.10;99.90;;;;;;5066478;28;20477;-73
2021/11/14 04:23:18;;;;;;;22.83;9.37;;;8.10;99.90;;;;;;5065863;28;20215;-74
2021/11/14 04:25:44;;;;;;;12.90;8.27;;;8.10;99.90;;;;;;5066950;28;20461;-73
2021/11/14 04:28:12;;;;;;;11.83;7.80;;;8.10;99.90;;;;;;5047719;28;20477;-73
2021/11/14 04:30:39;;;;;;;15.90;9.53;;;8.20;99.90;;;;;;5067684;28;20476;-74
2021/11/14 04:33:05;;;;;;;10.90;7.50;;;8.20;99.90;;;;;;5063125;28;21014;-73
2021/11/14 04:35:31;;;;;;;15.23;8.80;;;8.20;99.90;;;;;;5066326;28;20481;-73
2021/11/14 04:37:57;;;;;;;14.13;8.37;;;8.20;99.90;;;;;;5064468;28;20215;-74
2021/11/14 04:40:25;;;;;;;12.70;8.20;;;8.20;99.90;;;;;;5065858;28;20456;-74
2021/11/14 04:42:52;;;;;;;12.97;8.80;;;8.20;99.90;;;;;;5066086;28;20472;-74
2021/11/14 04:45:18;;;;;;;13.40;8.97;;;8.20;99.90;;;;;;5063108;28;20461;-73
2021/11/14 04:47:44;;;;;;;14.63;9.17;;;8.20;99.90;;;;;;5065883;28;20462;-73
2021/11/14 04:50:12;;;;;;;15.70;9.63;;;8.20;99.90;;;;;;5064788;28;20949;-73
2021/11/14 04:52:38;;;;;;;18.07;9.40;;;8.20;99.90;;;;;;5066378;28;20307;-74
2021/11/14 04:55:05;;;;;;;12.83;8.07;;;8.20;99.90;;;;;;5064356;28;20536;-74
2021/11/14 04:57:31;;;;;;;12.03;8.00;;;8.20;99.90;;;;;;5066603;28;20304;-74
2021/11/14 04:59:56;;;;;;;15.20;7.93;;;8.20;99.90;;;;;;5064792;28;20485;-74
2021/11/14 05:02:22;;;;;;;12.30;8.03;;;8.20;99.90;;;;;;5065371;28;20306;-74
2021/11/14 05:04:48;;;;;;;12.40;8.73;;;8.20;99.90;;;;;;5065733;28;20224;-73
2021/11/14 05:07:14;;;;;;;12.43;8.73;;;8.20;99.90;;;;;;5064705;28;20223;-74
2021/11/14 05:09:42;;;;;;;14.67;9.10;;;8.20;99.90;;;;;;5065397;28;20306;-73
2021/11/14 05:12:09;;;;;;;14.43;8.63;;;8.20;99.90;;;;;;5066593;28;20556;-74
2021/11/14 05:14:34;;;;;;;13.30;8.03;;;8.20;99.90;;;;;;5067655;28;20302;-73
2021/11/14 05:17:01;;;;;;;13.80;8.00;;;8.20;99.90;;;;;;5068070;28;20576;-73
2021/11/14 05:19:26;;;;;;;9.80;7.27;;;8.20;99.90;;;;;;5086796;28;20223;-73
2021/11/14 05:21:52;;;;;;;14.57;8.10;;;8.20;99.90;;;;;;5068398;28;20465;-73
2021/11/14 05:24:18;;;;;;;11.90;8.23;;;8.20;99.90;;;;;;5067655;28;20311;-73
2021/11/14 05:26:45;;;;;;;10.57;7.57;;;8.20;99.90;;;;;;5086494;28;20277;-73
2021/11/14 05:29:11;;;;;;;11.37;7.30;;;8.20;99.90;;;;;;5068117;28;20318;-73
2021/11/14 05:31:37;;;;;;;13.83;7.70;;;8.20;99.90;;;;;;5060708;28;20551;-73
2021/11/14 05:34:03;;;;;;;11.17;8.53;;;8.20;99.90;;;;;;5069666;28;20218;-74
2021/11/14 05:36:28;;;;;;;9.43;7.03;;;8.20;99.90;;;;;;5070953;28;20219;-73
2021/11/14 05:38:54;;;;;;;11.33;7.40;;;8.20;99.90;;;;;;5055156;28;20215;-72
2021/11/14 05:41:20;;;;;;;9.90;6.97;;;8.20;99.90;;;;;;5054601;28;20218;-74
2021/11/14 05:43:46;;;;;;;11.80;7.07;;;8.20;99.90;;;;;;5070969;28;20515;-74
2021/11/14 05:46:12;;;;;;;12.30;7.33;;;8.20;99.90;;;;;;5070236;28;20446;-73
2021/11/14 05:48:38;;;;;;;13.30;7.20;;;8.20;99.90;;;;;;5071193;28;20226;-73
2021/11/14 05:51:04;;;;;;;9.73;6.50;;;8.20;99.90;;;;;;5071174;28;20519;-73
2021/11/14 05:53:30;;;;;;;11.03;6.90;;;8.20;99.90;;;;;;5070578;28;20599;-74
2021/11/14 05:55:56;;;;;;;12.37;7.87;;;8.10;99.90;;;;;;5070896;28;20230;-72
2021/11/14 06:03:29;;;;;;;11.40;6.97;;;8.10;99.90;;;;;;5070642;28;20445;-75
2021/11/14 06:05:55;;;;;;;8.60;6.70;;;8.10;99.90;;;;;;5069702;28;20223;-74
2021/11/14 06:08:21;;;;;;;10.40;7.00;;;8.10;99.90;;;;;;5069522;28;20463;-73
2021/11/14 06:10:48;;;;;;;9.60;7.23;;;8.10;99.90;;;;;;5071009;28;20238;-73
2021/11/14 06:13:14;;;;;;;10.27;6.97;;;8.10;99.90;;;;;;5086665;28;20465;-73
2021/11/14 06:15:39;;;;;;;8.77;7.00;;;8.10;99.90;;;;;;5071065;28;20457;-74
2021/11/14 06:18:05;;;;;;;7.63;6.17;;;8.10;99.90;;;;;;5053907;28;20223;-73
2021/11/14 06:20:31;;;;;;;8.23;6.47;;;8.10;99.90;;;;;;5071117;28;20293;-73
2021/11/14 06:22:57;;;;;;;9.37;7.37;;;8.10;99.90;;;;;;5069359;28;20223;-73
2021/11/14 06:25:22;;;;;;;9.13;5.63;;;8.10;99.90;;;;;;5070833;28;20266;-73
2021/11/14 06:27:48;;;;;;;8.70;7.10;;;8.10;99.90;;;;;;5070988;28;20219;-73
2021/11/14 06:30:16;;;;;;;8.23;6.50;;;8.10;99.90;;;;;;5070573;28;20234;-71
2021/11/14 06:32:42;;;;;;;8.30;6.67;;;8.10;99.90;;;;;;5066054;28;20598;-74
2021/11/14 06:35:09;;;;;;;11.23;7.57;;;8.20;99.90;;;;;;5086539;28;20528;-73
2021/11/14 06:37:36;;;;;;;9.13;7.37;;;8.20;99.90;;;;;;5070665;28;20469;-74
2021/11/14 06:40:04;;;;;;;8.50;6.53;;;8.20;99.90;;;;;;5069250;28;20450;-72
2021/11/14 06:42:29;;;;;;;11.40;7.90;;;8.20;99.90;;;;;;5070112;28;20454;-73
2021/11/14 06:44:55;;;;;;;10.87;7.00;;;8.20;99.90;;;;;;5070148;28;20457;-73
2021/11/14 06:47:21;;;;;;;12.40;8.13;;;8.20;99.90;;;;;;5070198;28;20223;-74
2021/11/14 06:49:47;;;;;;;9.33;6.97;;;8.20;99.90;;;;;;5070286;28;20588;-73
2021/11/14 06:52:14;;;;;;;9.00;6.50;;;8.20;99.90;;;;;;5049731;28;20220;-73
2021/11/14 06:54:39;;;;;;;9.30;6.87;;;8.20;99.90;;;;;;5051574;28;20527;-74
2021/11/14 06:57:06;;;;;;;8.70;6.50;;;8.20;99.90;;;;;;5066474;28;20445;-73
2021/11/14 06:59:32;;;;;;;9.40;7.23;;;8.20;99.90;;;;;;5047839;28;20253;-73
2021/11/14 07:01:58;;;;;;;12.77;7.90;;;8.10;99.90;;;;;;5069751;28;20512;-74
2021/11/14 07:04:24;;;;;;;10.03;6.80;;;8.10;99.90;;;;;;5069255;28;21001;-74
2021/11/14 07:06:49;;;;;;;7.60;5.90;;;8.10;99.90;;;;;;5069973;28;20222;-74
2021/11/14 07:09:15;;;;;;;8.27;6.73;;;8.10;99.90;;;;;;5070806;28;20230;-73
2021/11/14 07:11:41;;;;;;;8.83;6.87;;;8.10;99.90;;;;;;5086641;28;20226;-74
2021/11/14 07:14:07;;;;;;;10.33;7.33;;;8.10;99.90;;;;;;5067518;28;20230;-74
2021/11/14 07:16:33;;;;;;;10.57;7.93;;;8.10;99.90;;;;;;5069317;28;20454;-74
2021/11/14 07:18:59;;;;;;;11.60;7.47;;;8.10;99.90;;;;;;5068915;28;20357;-73
2021/11/14 07:21:25;;;;;;;7.83;6.73;;;8.10;99.90;;;;;;5069891;28;20488;-74
2021/11/14 07:23:51;;;;;;;9.17;7.50;;;8.10;99.90;;;;;;5069418;28;20457;-73
2021/11/14 07:26:17;;;;;;;10.57;7.53;;;8.10;99.90;;;;;;5067855;28;20500;-73
2021/11/14 07:28:43;;;;;;;8.90;6.37;;;8.10;99.90;;;;;;5070729;28;20454;-73
2021/11/14 07:31:09;;;;;;;10.00;6.97;;;8.10;99.90;;;;;;5068908;28;20458;-74
2021/11/14 07:33:35;;;;;;;12.50;7.83;;;8.10;99.90;;;;;;5069609;28;20569;-73
2021/11/14 07:36:00;;;;;;;9.37;6.83;;;8.10;99.90;;;;;;5065772;28;20661;-73
2021/11/14 07:38:27;;;;;;;8.43;7.00;;;8.10;99.90;;;;;;5043066;28;20496;-71
2021/11/14 07:40:53;;;;;;;10.17;7.87;;;8.10;99.90;;;;;;5068823;28;20219;-74
2021/11/14 07:43:19;;;;;;;8.63;6.73;;;8.10;99.90;;;;;;5068193;28;20811;-73
2021/11/14 07:45:45;;;;;;;9.33;6.60;;;8.10;99.90;;;;;;5069459;28;20461;-73
2021/11/14 07:48:11;;;;;;;10.27;8.10;;;8.10;99.90;;;;;;5068921;28;20518;-73
2021/11/14 07:50:39;;;;;;;9.50;5.73;;;8.20;99.90;;;;;;5069261;28;20465;-74
2021/11/14 07:53:05;;;;;;;9.77;6.97;;;8.20;99.90;;;;;;5068434;28;20476;-74
2021/11/14 07:55:32;;;;;;;13.20;8.00;;;8.20;99.90;;;;;;5062988;28;20454;-74
2021/11/14 07:57:59;;;;;;;13.23;8.00;;;8.20;99.90;;;;;;5058263;28;20460;-74
2021/11/14 08:00:26;;;;;;;11.60;8.63;;;8.20;99.90;;;;;;5069138;28;20457;-73
2021/11/14 08:02:52;;;;;;;15.90;8.20;;;8.20;99.90;;;;;;5070489;28;20453;-74
2021/11/14 08:05:19;;;;;;;12.53;9.23;;;8.20;99.90;;;;;;5067912;28;20442;-74
2021/11/14 08:07:46;;;;;;;12.20;7.90;;;8.20;99.90;;;;;;5062465;28;20450;-73
2021/11/14 08:10:14;;;;;;;10.03;8.47;;;8.20;99.90;;;;;;5067970;28;20458;-74
2021/11/14 08:12:40;;;;;;;14.47;9.20;;;8.20;99.90;;;;;;5067034;28;20477;-73
2021/11/14 08:15:07;;;;;;;14.37;9.07;;;8.20;99.90;;;;;;5066310;28;20464;-73
2021/11/14 08:17:33;;;;;;;12.70;8.77;;;8.20;99.90;;;;;;5068323;28;20219;-74
2021/11/14 08:20:00;;;;;;;11.50;8.97;;;8.20;99.90;;;;;;5067334;28;20453;-74
2021/11/14 08:22:27;;;;;;;12.00;9.07;;;8.20;99.90;;;;;;5067399;28;20465;-73
2021/11/14 08:24:54;;;;;;;13.73;9.00;;;8.20;99.90;;;;;;5068444;28;20465;-74
2021/11/14 08:27:20;;;;;;;12.63;8.60;;;8.20;99.90;;;;;;5058923;28;20456;-73
2021/11/14 08:29:46;;;;;;;12.00;8.43;;;8.20;99.90;;;;;;5051255;28;20488;-74
2021/11/14 08:32:12;;;;;;;14.17;8.93;;;8.20;99.90;;;;;;5068131;28;20449;-74
2021/11/14 08:34:37;;;;;;;11.87;8.90;;;8.20;99.90;;;;;;5068837;28;20277;-72
2021/11/14 08:37:03;;;;;;;13.33;8.57;;;8.20;99.90;;;;;;5051453;28;20215;-73
2021/11/14 08:39:29;;;;;;;13.03;8.40;;;8.20;99.90;;;;;;5059920;28;20211;-71
2021/11/14 08:41:55;;;;;;;14.67;8.73;;;8.20;99.90;;;;;;5068181;28;20226;-74
2021/11/14 08:44:25;;;;;;;15.57;8.07;;;8.20;99.90;;;;;;5067874;28;20223;-74
2021/11/14 08:46:54;;;;;;;15.07;9.30;;;8.20;99.90;;;;;;5071201;28;20288;-74
2021/11/14 08:49:21;;;;;;;14.70;9.40;;;8.20;99.90;;;;;;5072455;28;20485;-72
2021/11/14 08:51:46;;;;;;;11.63;8.00;;;8.30;99.90;;;;;;5072923;28;20506;-72
2021/11/14 08:54:12;;;;;;;11.40;7.70;;;8.30;99.90;;;;;;5071424;28;20449;-73
2021/11/14 08:56:39;;;;;;;12.00;8.10;;;8.30;99.90;;;;;;5055904;28;20223;-74
2021/11/14 08:59:07;;;;;;;13.83;8.40;;;8.30;99.90;;;;;;5055799;28;20306;-73
2021/11/14 09:01:34;;;;;;;14.63;9.37;;;8.30;99.90;;;;;;5072303;28;20449;-74
2021/11/14 09:03:59;;;;;;;11.57;8.03;;;8.30;99.90;;;;;;5071454;28;20453;-74
2021/11/14 09:06:25;;;;;;;14.20;9.67;;;8.30;99.90;;;;;;5072413;28;20579;-74
2021/11/14 09:08:51;;;;;;;13.60;8.77;;;8.30;99.90;;;;;;5071319;28;20573;-73
2021/11/14 09:11:17;;;;;;;13.10;9.23;;;8.30;99.90;;;;;;5071599;28;20745;-74
2021/11/14 09:13:44;;;;;;;13.10;9.70;;;8.30;99.90;;;;;;5071282;28;20211;-74
2021/11/14 09:16:10;;;;;;;11.70;8.90;;;8.30;99.90;;;;;;5070514;28;20523;-74
2021/11/14 09:18:36;;;;;;;12.80;8.70;;;8.30;99.90;;;;;;5071501;28;20461;-74
2021/11/14 09:21:03;;;;;;;12.80;8.97;;;8.30;99.90;;;;;;5070646;28;20470;-75
2021/11/14 09:23:29;;;;;;;13.23;9.10;;;8.40;99.90;;;;;;5071426;28;20840;-74
2021/11/14 09:25:56;;;;;;;11.70;8.50;;;8.40;99.90;;;;;;5071616;28;20464;-75
2021/11/14 09:28:22;;;;;;;12.47;9.13;;;8.40;99.90;;;;;;5058197;28;20243;-74
2021/11/14 09:30:50;;;;;;;12.70;8.10;;;8.40;99.90;;;;;;5051885;28;20504;-74
2021/11/14 09:33:17;;;;;;;14.60;8.57;;;8.40;99.90;;;;;;5067547;28;20589;-74
2021/11/14 09:35:44;;;;;;;12.57;8.77;;;8.40;99.90;;;;;;5071849;28;20461;-74
2021/11/14 09:38:09;;;;;;;11.70;9.00;;;8.40;99.90;;;;;;5070240;28;20499;-74
2021/11/14 09:40:38;;;;;;;12.80;8.30;;;8.40;99.90;;;;;;5071414;28;20498;-74
2021/11/14 09:43:04;;;;;;;12.23;8.23;;;8.40;99.90;;;;;;5067411;28;20212;-74
2021/11/14 09:45:32;;;;;;;12.10;8.90;;;8.40;99.90;;;;;;5069946;28;20453;-74
2021/11/14 09:47:59;;;;;;;14.83;9.67;;;8.50;99.90;;;;;;5070792;28;20461;-74
2021/11/14 09:50:26;;;;;;;15.80;10.07;;;8.50;99.90;;;;;;5071336;28;20469;-74
2021/11/14 09:52:53;;;;;;;12.40;9.03;;;8.50;99.90;;;;;;5053821;28;20489;-73
2021/11/14 09:55:19;;;;;;;14.40;9.80;;;8.50;99.90;;;;;;5069740;28;20538;-74
2021/11/14 09:57:45;;;;;;;13.27;9.77;;;8.50;99.90;;;;;;5053127;28;20936;-74
2021/11/14 10:00:14;;;;;;;14.83;10.00;;;8.50;99.90;;;;;;5070194;28;20349;-75
2021/11/14 10:02:41;;;;;;;12.17;8.07;;;8.50;99.90;;;;;;5070114;28;20448;-74
2021/11/14 10:05:09;;;;;;;15.07;9.80;;;8.60;99.90;;;;;;5069911;28;20567;-75
2021/11/14 10:07:36;;;;;;;17.60;12.07;;;8.60;99.90;;;;;;5070574;28;20450;-74
2021/11/14 10:10:04;;;;;;;20.57;14.97;;;8.60;99.90;;;;;;5052557;28;20469;-73
2021/11/14 10:12:32;;;;;;;18.33;13.30;;;8.60;99.90;;;;;;5053662;28;20536;-75
2021/11/14 10:15:13;;;;;;;18.83;12.90;;;8.60;99.90;;;;;;5053087;28;20454;-75
2021/11/14 10:17:43;;;;;;;17.90;10.70;;;8.60;99.90;;;;;;5070750;28;20457;-75
2021/11/14 10:20:23;;;;;;;13.70;9.70;;;8.60;99.90;;;;;;5053191;28;20446;-74
2021/11/14 10:22:58;;;;;;;13.20;9.20;;;8.60;99.90;;;;;;5062481;28;20517;-75
2021/11/14 10:25:25;;;;;;;13.47;9.37;;;8.60;99.90;;;;;;5050249;28;20543;-74
2021/11/14 10:27:52;;;;;;;13.47;9.37;;;8.70;99.90;;;;;;5049615;28;20478;-74
2021/11/14 10:30:24;;;;;;;14.93;8.70;;;8.70;99.90;;;;;;5050776;28;20606;-75
2021/11/14 10:32:55;;;;;;;12.07;8.67;;;8.70;99.90;;;;;;5049649;28;20465;-75
2021/11/14 10:35:23;;;;;;;15.00;8.90;;;8.70;99.90;;;;;;5056374;28;20466;-75
2021/11/14 10:37:49;;;;;;;13.77;9.90;;;8.70;99.90;;;;;;5048733;28;20478;-73
2021/11/14 10:40:25;;;;;;;14.90;10.60;;;8.70;99.90;;;;;;5046404;28;20553;-75
2021/11/14 10:42:54;;;;;;;13.60;9.63;;;8.70;99.90;;;;;;5054060;28;20926;-75
2021/11/14 10:45:20;;;;;;;12.67;8.23;;;8.80;99.90;;;;;;5032937;28;20449;-75
2021/11/14 10:48:01;;;;;;;11.90;8.07;;;8.80;99.90;;;;;;5060817;28;20462;-75
2021/11/14 10:50:32;;;;;;;15.20;9.30;;;8.80;99.90;;;;;;5056382;28;20462;-73
2021/11/14 10:53:00;;;;;;;13.93;8.17;;;8.80;99.90;;;;;;5061362;28;20547;-74
2021/11/14 10:55:30;;;;;;;15.80;10.10;;;8.80;99.90;;;;;;5050354;28;20466;-73
2021/11/14 10:57:57;;;;;;;11.17;8.70;;;8.80;99.90;;;;;;5067336;28;20462;-74
2021/11/14 11:00:25;;;;;;;12.80;7.50;;;8.80;99.90;;;;;;5059081;28;20457;-74
2021/11/14 11:02:50;;;;;;;14.53;9.60;;;8.80;99.90;;;;;;5066705;28;20450;-74
2021/11/14 11:05:22;;;;;;;12.00;9.03;;;8.80;99.90;;;;;;5066284;28;20443;-74
2021/11/14 11:08:07;;;;;;;12.20;8.40;;;8.80;99.90;;;;;;5034270;28;20766;-74
2021/11/14 11:10:38;;;;;;;12.60;8.87;;;8.80;99.90;;;;;;5054245;28;20538;-73
2021/11/14 11:13:08;;;;;;;13.97;9.53;;;8.80;99.90;;;;;;5046334;28;20467;-74
2021/11/14 11:15:52;;;;;;;12.80;8.97;;;8.90;99.90;;;;;;5048914;28;20454;-74
2021/11/14 11:18:21;;;;;;;11.57;7.77;;;8.90;99.90;;;;;;5076187;28;20817;-73
2021/11/14 11:20:53;;;;;;;16.07;8.50;;;8.90;99.90;;;;;;5069783;28;20450;-73
2021/11/14 11:23:19;;;;;;;14.43;8.97;;;8.90;99.90;;;;;;5068703;28;20505;-74
2021/11/14 11:25:54;;;;;;;9.47;7.70;;;8.90;99.90;;;;;;5063433;28;21014;-74
2021/11/14 11:28:23;;;;;;;11.53;8.53;;;8.90;99.90;;;;;;5054304;28;20550;-73
2021/11/14 11:30:53;;;;;;;15.37;9.97;;;8.90;99.90;;;;;;5069574;28;20477;-74
2021/11/14 11:33:20;;;;;;;14.93;9.60;;;9.00;99.90;;;;;;5068014;28;20438;-73
2021/11/14 11:35:46;;;;;;;11.53;9.03;;;9.00;99.90;;;;;;5057734;28;20466;-73
2021/11/14 11:38:13;;;;;;;14.70;9.67;;;9.00;99.90;;;;;;5067794;28;20457;-74
2021/11/14 11:40:39;;;;;;;12.80;8.00;;;9.00;99.90;;;;;;5057040;28;20459;-73
2021/11/14 11:43:05;;;;;;;11.57;7.33;;;9.00;99.90;;;;;;5084059;28;20528;-74
2021/11/14 11:45:42;;;;;;;13.23;8.57;;;9.00;99.90;;;;;;5059259;28;20231;-73
2021/11/14 11:48:27;;;;;;;12.30;7.80;;;9.10;99.90;;;;;;5051474;28;20231;-73
2021/11/14 11:51:04;;;;;;;11.10;7.20;;;9.00;99.90;;;;;;5057270;28;20470;-74
2021/11/14 11:53:30;;;;;;;10.10;7.50;;;9.10;99.90;;;;;;5048164;28;20458;-73
2021/11/14 11:56:01;;;;;;;11.67;7.27;;;9.00;99.90;;;;;;5032820;28;20462;-74
2021/11/14 11:58:42;;;;;;;11.00;7.27;;;9.10;99.90;;;;;;5049910;28;20716;-73
2021/11/14 12:01:25;;;;;;;9.53;7.70;;;9.10;99.90;;;;;;5069091;28;20497;-74
2021/11/14 12:04:08;;;;;;;11.43;8.17;;;9.10;99.90;;;;;;5050184;28;20462;-74
2021/11/14 12:06:44;;;;;;;9.70;7.67;;;9.10;99.90;;;;;;5072802;28;20465;-74
2021/11/14 12:09:11;;;;;;;12.93;8.63;;;9.10;99.90;;;;;;5050136;28;20477;-73
2021/11/14 12:11:48;;;;;;;11.83;8.30;;;9.10;99.90;;;;;;5075252;28;20454;-73
2021/11/14 12:14:20;;;;;;;11.63;7.93;;;9.20;99.90;;;;;;5041830;28;20488;-73
2021/11/14 12:17:25;;;;;;;12.83;8.40;;;9.10;99.90;;;;;;5066303;28;20462;-73
2021/11/14 12:19:51;;;;;;;10.43;7.37;;;9.10;99.90;;;;;;5032864;28;20456;-74
2021/11/14 12:22:19;;;;;;;13.03;8.20;;;9.10;99.90;;;;;;5060010;28;20495;-73
2021/11/14 12:24:50;;;;;;;13.13;8.50;;;9.20;99.90;;;;;;5062991;28;20219;-73
2021/11/14 12:27:32;;;;;;;11.33;7.80;;;9.20;99.90;;;;;;5046834;28;20466;-74
2021/11/14 12:30:07;;;;;;;11.10;8.03;;;9.20;99.90;;;;;;5061875;28;20477;-74
2021/11/14 12:32:41;;;;;;;10.90;7.53;;;9.20;99.90;;;;;;5048160;28;20462;-73
2021/11/14 12:35:17;;;;;;;12.13;7.77;;;9.20;99.90;;;;;;5057796;28;20859;-73
2021/11/14 12:38:04;;;;;;;10.47;7.90;;;9.20;99.90;;;;;;5048539;28;20520;-73
2021/11/14 12:40:56;;;;;;;11.47;8.87;;;9.20;99.90;;;;;;5064687;28;20872;-73
2021/11/14 12:43:28;;;;;;;12.20;8.60;;;9.20;99.90;;;;;;5051846;28;20450;-74
2021/11/14 12:45:56;;;;;;;12.50;8.80;;;9.20;99.90;;;;;;5049890;28;20512;-73
2021/11/14 12:48:28;;;;;;;12.10;8.73;;;9.30;99.90;;;;;;5045217;28;20511;-73
2021/11/14 12:51:18;;;;;;;13.83;8.97;;;9.30;99.90;;;;;;5062995;28;20545;-74
2021/11/14 12:53:53;;;;;;;12.03;8.10;;;9.30;99.90;;;;;;5047782;28;20495;-73
2021/11/14 12:56:29;;;;;;;12.97;8.00;;;9.30;99.90;;;;;;5047635;28;20446;-74